createdAt,value
2019-06-01T00:01:05.653Z,96.60
2019-06-01T00:05:09.965Z,96.70
2019-06-01T00:09:14.192Z,96.60
2019-06-01T00:13:18.445Z,96.60
2019-06-01T00:17:22.727Z,96.70
2019-06-01T00:21:26.958Z,96.70
2019-06-01T00:25:31.187Z,96.60
2019-06-01T00:29:35.431Z,96.70
2019-06-01T00:33:39.680Z,96.70
2019-06-01T00:37:43.875Z,96.70
2019-06-01T00:41:48.177Z,96.80
2019-06-01T00:45:53.137Z,96.70
2019-06-01T00:49:57.575Z,96.70
2019-06-01T00:54:01.805Z,96.70
2019-06-01T00:58:06.048Z,96.70
2019-06-01T01:02:10.257Z,97.20
2019-06-01T01:06:14.529Z,96.80
2019-06-01T01:10:19.449Z,96.70
2019-06-01T01:14:23.671Z,96.70
2019-06-01T01:18:27.904Z,96.80
2019-06-01T01:22:32.099Z,96.80
2019-06-01T01:26:36.342Z,96.80
2019-06-01T01:30:40.808Z,96.80
2019-06-01T01:34:45.027Z,96.70
2019-06-01T01:38:50.473Z,96.70
2019-06-01T01:42:54.790Z,96.90
2019-06-01T01:46:59.144Z,96.80
2019-06-01T01:51:03.353Z,96.80
2019-06-01T01:55:07.706Z,96.90
2019-06-01T01:59:11.948Z,96.90
2019-06-01T02:03:16.155Z,96.90
2019-06-01T02:07:20.507Z,96.80
2019-06-01T02:11:24.805Z,96.90
2019-06-01T02:15:29.030Z,96.90
2019-06-01T02:19:36.434Z,96.80
2019-06-01T02:23:39.106Z,96.80
2019-06-01T02:27:43.327Z,96.80
2019-06-01T02:31:47.551Z,96.70
2019-06-01T02:35:51.783Z,96.80
2019-06-01T02:39:56.762Z,96.90
2019-06-01T02:44:01.668Z,96.80
2019-06-01T02:48:07.003Z,96.90
2019-06-01T02:52:11.259Z,96.80
2019-06-01T02:56:15.483Z,96.90
2019-06-01T03:00:41.100Z,96.80
2019-06-01T03:04:46.395Z,96.80
2019-06-01T03:08:52.630Z,96.90
2019-06-01T03:12:58.183Z,96.80
2019-06-01T03:17:03.701Z,97.00
2019-06-01T03:21:09.290Z,97.00
2019-06-01T03:25:13.597Z,97.00
2019-06-01T03:29:20.157Z,97.10
2019-06-01T03:33:24.364Z,97.20
2019-06-01T03:37:28.660Z,97.10
2019-06-01T03:41:33.493Z,97.20
2019-06-01T03:45:37.707Z,97.20
2019-06-01T03:49:41.947Z,97.30
2019-06-01T03:53:46.234Z,97.20
2019-06-01T03:57:50.550Z,97.40
2019-06-01T04:01:54.891Z,97.30
2019-06-01T04:05:59.123Z,97.30
2019-06-01T04:10:03.898Z,97.20
2019-06-01T04:14:08.185Z,97.30
2019-06-01T04:18:13.999Z,97.30
2019-06-01T04:22:18.423Z,97.60
2019-06-01T04:26:22.854Z,97.60
2019-06-01T04:30:27.976Z,97.60
2019-06-01T04:34:35.587Z,97.90
2019-06-01T04:38:38.153Z,97.70
2019-06-01T04:42:42.377Z,98.60
2019-06-01T04:46:46.609Z,98.40
2019-06-01T04:50:51.043Z,98.40
2019-06-01T04:54:55.237Z,98.10
2019-06-01T04:58:59.477Z,98.30
2019-06-01T05:03:06.741Z,98.30
2019-06-01T05:07:09.613Z,98.30
2019-06-01T05:11:13.948Z,98.30
2019-06-01T05:15:19.401Z,98.20
2019-06-01T05:19:23.640Z,98.30
2019-06-01T05:23:27.943Z,98.50
2019-06-01T05:27:32.171Z,98.80
2019-06-01T05:31:36.403Z,98.60
2019-06-01T05:35:40.609Z,98.70
2019-06-01T05:39:44.842Z,98.60
2019-06-01T05:43:49.078Z,98.80
2019-06-01T05:47:53.313Z,98.90
2019-06-01T05:51:57.933Z,99.10
2019-06-01T05:56:02.268Z,99.10
2019-06-01T06:00:07.332Z,99.00
2019-06-01T06:04:11.679Z,99.10
2019-06-01T06:08:16.026Z,99.90
2019-06-01T06:12:21.522Z,99.60
2019-06-01T06:16:26.121Z,99.70
2019-06-01T06:20:30.342Z,99.90
2019-06-01T06:24:35.218Z,99.80
2019-06-01T06:28:39.473Z,99.80
2019-06-01T06:32:43.691Z,99.80
2019-06-01T06:36:47.939Z,99.90
2019-06-01T06:40:52.132Z,99.90
2019-06-01T06:44:57.105Z,99.90
2019-06-01T06:49:01.317Z,99.90
2019-06-01T06:53:05.649Z,99.90
2019-06-01T06:57:09.868Z,99.90
2019-06-01T07:01:14.077Z,99.90
2019-06-01T07:05:19.279Z,99.90
2019-06-01T07:09:24.077Z,99.90
2019-06-01T07:13:28.360Z,99.90
2019-06-01T07:17:32.586Z,99.90
2019-06-01T07:21:37.223Z,99.90
2019-06-01T07:25:41.537Z,99.90
2019-06-01T07:29:45.793Z,99.90
2019-06-01T07:37:53.672Z,99.90
2019-06-01T07:41:58.007Z,99.90
2019-06-01T07:46:02.373Z,99.90
2019-06-01T07:50:06.783Z,99.90
2019-06-01T07:54:11.003Z,99.90
2019-06-01T07:58:15.250Z,99.90
2019-06-01T08:02:23.308Z,99.90
2019-06-01T08:06:26.115Z,99.90
2019-06-01T08:10:31.642Z,99.90
2019-06-01T08:14:35.959Z,99.90
2019-06-01T08:18:40.185Z,99.90
2019-06-01T08:22:44.393Z,99.90
2019-06-01T08:26:48.616Z,99.90
2019-06-01T08:30:52.840Z,99.90
2019-06-01T08:35:08.113Z,99.90
2019-06-01T08:39:03.036Z,99.80
2019-06-01T08:43:07.238Z,99.80
2019-06-01T08:47:12.176Z,99.70
2019-06-01T08:51:16.409Z,99.70
2019-06-01T08:55:20.644Z,99.80
2019-06-01T08:59:26.153Z,99.80
2019-06-01T09:03:31.836Z,99.50
2019-06-01T09:07:36.265Z,99.30
2019-06-01T09:11:40.500Z,99.50
2019-06-01T09:15:44.777Z,99.60
2019-06-01T09:19:49.021Z,99.40
2019-06-01T09:23:53.256Z,99.20
2019-06-01T09:27:57.482Z,99.20
2019-06-01T09:32:01.797Z,99.40
2019-06-01T09:36:06.046Z,99.30
2019-06-01T09:40:10.281Z,98.60
2019-06-01T09:44:14.518Z,98.70
2019-06-01T09:48:18.744Z,98.80
2019-06-01T09:52:22.984Z,98.90
2019-06-01T09:56:29.017Z,98.70
2019-06-01T10:00:34.712Z,98.60
2019-06-01T10:04:40.023Z,98.50
2019-06-01T10:08:44.233Z,98.50
2019-06-01T10:12:48.544Z,98.20
2019-06-01T10:16:52.889Z,97.70
2019-06-01T10:20:57.111Z,98.40
2019-06-01T10:25:01.369Z,97.70
2019-06-01T10:29:05.714Z,98.10
2019-06-01T10:33:09.936Z,98.30
2019-06-01T10:37:14.172Z,98.40
2019-06-01T10:41:18.411Z,98.30
2019-06-01T10:45:22.808Z,97.70
2019-06-01T10:49:27.032Z,98.20
2019-06-01T10:53:43.630Z,98.30
2019-06-01T10:57:47.597Z,98.00
2019-06-01T11:01:51.852Z,98.40
2019-06-01T11:05:56.200Z,97.80
2019-06-01T11:10:00.423Z,97.60
2019-06-01T11:14:04.634Z,97.10
2019-06-01T11:18:08.860Z,96.90
2019-06-01T11:22:13.093Z,96.40
2019-06-01T11:26:17.339Z,95.50
2019-06-01T11:30:21.779Z,96.40
2019-06-01T11:34:26.033Z,95.30
2019-06-01T11:38:30.284Z,96.00
2019-06-01T11:42:35.076Z,96.00
2019-06-01T11:46:39.375Z,94.80
2019-06-01T11:50:43.620Z,95.20
2019-06-01T11:54:47.873Z,95.50
2019-06-01T11:58:52.116Z,95.10
2019-06-01T12:02:56.727Z,95.00
2019-06-01T12:07:16.167Z,96.00
2019-06-01T12:11:07.160Z,95.60
2019-06-01T12:15:12.071Z,95.20
2019-06-01T12:19:16.356Z,94.80
2019-06-01T12:23:20.581Z,95.40
2019-06-01T12:27:24.818Z,94.70
2019-06-01T12:31:29.068Z,95.50
2019-06-01T12:35:33.486Z,94.50
2019-06-01T12:39:38.310Z,93.90
2019-06-01T12:43:45.465Z,94.20
2019-06-01T12:47:55.603Z,94.20
2019-06-01T12:51:56.643Z,92.60
2019-06-01T12:56:00.951Z,93.50
2019-06-01T13:00:06.231Z,92.70
2019-06-01T13:04:10.470Z,92.20
2019-06-01T13:08:14.699Z,93.20
2019-06-01T13:12:18.994Z,93.00
2019-06-01T13:16:24.905Z,93.70
2019-06-01T13:20:29.195Z,93.40
2019-06-01T13:24:34.308Z,94.10
2019-06-01T13:28:38.696Z,93.20
2019-06-01T13:32:44.029Z,93.10
2019-06-01T13:36:49.023Z,93.00
2019-06-01T13:40:53.375Z,93.10
2019-06-01T13:44:57.606Z,93.80
2019-06-01T13:49:01.855Z,93.60
2019-06-01T13:53:06.183Z,93.10
2019-06-01T13:57:10.503Z,93.80
2019-06-01T14:01:14.792Z,92.40
2019-06-01T14:05:19.032Z,92.70
2019-06-01T14:09:23.265Z,91.20
2019-06-01T14:13:27.499Z,91.70
2019-06-01T14:17:31.722Z,92.30
2019-06-01T14:21:35.937Z,92.50
2019-06-01T14:25:40.177Z,92.60
2019-06-01T14:29:46.422Z,92.50
2019-06-01T14:33:50.864Z,93.00
2019-06-01T14:37:55.194Z,92.50
2019-06-01T14:41:59.520Z,93.00
2019-06-01T14:46:03.758Z,92.80
2019-06-01T14:50:08.894Z,91.80
2019-06-01T14:54:13.114Z,92.60
2019-06-01T14:58:17.358Z,91.70
2019-06-01T15:02:21.554Z,90.20
2019-06-01T15:06:25.914Z,91.00
2019-06-01T15:10:31.880Z,91.70
2019-06-01T15:14:36.064Z,91.00
2019-06-01T15:18:40.296Z,90.40
2019-06-01T15:22:44.505Z,91.30
2019-06-01T15:26:50.401Z,91.50
2019-06-01T15:30:54.900Z,92.00
2019-06-01T15:35:00.433Z,91.30
2019-06-01T15:39:21.007Z,92.10
2019-06-01T15:43:12.548Z,91.50
2019-06-01T15:47:16.766Z,92.20
2019-06-01T15:51:21.025Z,93.10
2019-06-01T15:55:25.355Z,93.60
2019-06-01T15:59:29.875Z,93.40
2019-06-01T16:03:34.616Z,93.40
2019-06-01T16:07:39.026Z,93.70
2019-06-01T16:11:43.283Z,92.50
2019-06-01T16:15:47.547Z,93.70
2019-06-01T16:19:51.862Z,93.40
2019-06-01T16:23:56.583Z,93.10
2019-06-01T16:28:01.005Z,93.00
2019-06-01T16:32:05.238Z,93.40
2019-06-01T16:36:09.437Z,93.10
2019-06-01T16:40:13.815Z,92.20
2019-06-01T16:44:19.920Z,92.00
2019-06-01T16:48:23.933Z,91.50
2019-06-01T16:52:28.519Z,90.80
2019-06-01T16:56:32.989Z,90.30
2019-06-01T17:00:37.607Z,90.20
2019-06-01T17:04:42.099Z,88.90
2019-06-01T17:08:46.403Z,89.70
2019-06-01T17:12:50.650Z,89.20
2019-06-01T17:16:54.894Z,89.90
2019-06-01T17:20:59.320Z,90.10
2019-06-01T17:25:03.761Z,90.20
2019-06-01T17:29:08.321Z,88.30
2019-06-01T17:33:12.789Z,88.50
2019-06-01T17:37:17.044Z,88.90
2019-06-01T17:41:21.293Z,88.10
2019-06-01T17:45:28.568Z,89.00
2019-06-01T17:49:32.820Z,89.50
2019-06-01T17:53:37.057Z,90.00
2019-06-01T17:57:41.290Z,88.40
2019-06-01T18:01:45.603Z,89.40
2019-06-01T18:05:49.857Z,89.50
2019-06-01T18:09:54.576Z,89.80
2019-06-01T18:13:58.886Z,90.00
2019-06-01T18:18:04.393Z,90.30
2019-06-01T18:22:08.928Z,90.30
2019-06-01T18:26:13.233Z,90.50
2019-06-01T18:30:18.101Z,90.90
2019-06-01T18:34:22.302Z,90.60
2019-06-01T18:38:26.549Z,90.50
2019-06-01T18:42:31.614Z,90.60
2019-06-01T18:46:35.845Z,90.60
2019-06-01T18:50:40.098Z,90.60
2019-06-01T18:54:44.424Z,90.70
2019-06-01T18:58:48.660Z,90.80
2019-06-01T19:02:52.978Z,90.90
2019-06-01T19:06:57.220Z,90.80
2019-06-01T19:11:01.455Z,90.80
2019-06-01T19:15:13.716Z,90.80
2019-06-01T19:19:12.694Z,90.80
2019-06-01T19:23:21.410Z,90.80
2019-06-01T19:27:22.943Z,91.00
2019-06-01T19:31:27.222Z,91.00
2019-06-01T19:35:31.865Z,90.90
2019-06-01T19:39:37.327Z,90.90
2019-06-01T19:43:41.964Z,91.00
2019-06-01T19:47:46.230Z,91.00
2019-06-01T19:51:50.732Z,91.10
2019-06-01T19:55:55.368Z,91.20
2019-06-01T19:59:59.602Z,91.10
2019-06-01T20:04:03.848Z,91.10
2019-06-01T20:08:08.087Z,91.10
2019-06-01T20:12:16.337Z,91.10
2019-06-01T20:16:20.194Z,91.20
2019-06-01T20:20:24.064Z,91.20
2019-06-01T20:24:28.355Z,91.20
2019-06-01T20:28:32.572Z,91.20
2019-06-01T20:32:36.816Z,91.20
2019-06-01T20:36:41.044Z,91.30
2019-06-01T20:40:45.296Z,91.30
2019-06-01T20:44:49.631Z,91.40
2019-06-01T20:48:53.935Z,91.40
2019-06-01T20:52:58.216Z,91.40
2019-06-01T20:57:02.436Z,91.50
2019-06-01T21:01:06.663Z,91.50
2019-06-01T21:05:11.155Z,91.50
2019-06-01T21:09:15.730Z,91.60
2019-06-01T21:13:20.238Z,91.70
2019-06-01T21:17:24.569Z,91.70
2019-06-01T21:21:28.779Z,91.70
2019-06-01T21:25:33.097Z,91.70
2019-06-01T21:29:37.416Z,91.80
2019-06-01T21:33:41.681Z,91.80
2019-06-01T21:37:45.905Z,91.90
2019-06-01T21:41:50.209Z,91.80
2019-06-01T21:45:54.509Z,91.90
2019-06-01T21:49:58.887Z,91.90
2019-06-01T21:54:04.352Z,91.90
2019-06-01T21:58:08.548Z,91.90
2019-06-01T22:02:13.896Z,92.00
2019-06-01T22:06:19.092Z,92.00
2019-06-01T22:10:25.659Z,92.00
2019-06-01T22:14:30.116Z,92.10
2019-06-01T22:18:34.353Z,92.10
2019-06-01T22:22:38.578Z,92.10
2019-06-01T22:26:42.874Z,92.10
2019-06-01T22:30:47.095Z,92.20
2019-06-01T22:34:51.471Z,92.10
2019-06-01T22:38:55.696Z,92.20
2019-06-01T22:42:59.921Z,92.10
2019-06-01T22:47:04.232Z,92.10
2019-06-01T22:51:08.471Z,92.20
2019-06-01T22:55:13.703Z,92.20
2019-06-01T22:59:17.935Z,92.20
2019-06-01T23:03:22.159Z,92.10
2019-06-01T23:07:27.266Z,92.20
2019-06-01T23:11:31.748Z,92.20
2019-06-01T23:15:36.123Z,92.60
2019-06-01T23:19:40.335Z,92.30
2019-06-01T23:23:44.563Z,92.30
2019-06-01T23:27:48.763Z,92.30
2019-06-01T23:31:52.987Z,92.30
2019-06-01T23:35:57.212Z,92.50
2019-06-01T23:40:01.441Z,92.30
2019-06-01T23:44:11.937Z,92.30
2019-06-01T23:48:11.519Z,92.20
2019-06-01T23:52:15.768Z,92.40
2019-06-01T23:56:19.998Z,92.40
